INFORMACIÓN METAR y TAF
METAR FOR LEZG
ADDS - METARS form results

(0234 UTC 25 April 2018)
Data provider http://aviationweather.gov/adds/metars/
 
METAR text: LEZG 250230Z VRB01KT CAVOK 14/10 Q1017
Conditions at: LEZG (ZARAGOZA (MIL/CI, ES) observed 0230 UTC 25 April 2018
Temperature: 14.0°C (57°F)
Dewpoint: 10.0°C (50°F) [RH = 77%]
Pressure (altimeter): 30.03 inches Hg (1017.0 mb)
Winds: variable direction winds at 1 MPH (1 knots; 0.5 m/s)
Visibility: 6 or more miles (10+ km)
Ceiling: ceiling and visibility are OK
Clouds: unknown
Weather: no significant weather observed at this time

METAR text: LEZG 250200Z 01003KT 340V050 CAVOK 13/10 Q1017
Conditions at: LEZG (ZARAGOZA (MIL/CI, ES) observed 0200 UTC 25 April 2018
Temperature: 13.0°C (55°F)
Dewpoint: 10.0°C (50°F) [RH = 82%]
Pressure (altimeter): 30.03 inches Hg (1017.0 mb)
Winds: from the N (10 degrees) at 3 MPH (3 knots; 1.6 m/s)
Visibility: 6 or more miles (10+ km)
Ceiling: ceiling and visibility are OK
Clouds: unknown
Weather: no significant weather observed at this time

Forecast for: LEZG (ZARAGOZA (MIL/CI, ES)
Text: TAF LEZG 242300Z 2500/2524 VRB03KT 9999 FEW060 TX27/2514Z TN11/2506Z
Forecast period: 0000 to 0700 UTC 25 April 2018
Forecast type: FROM: standard forecast or significant change
Winds: variable direction winds at 3 MPH (3 knots; 1.6 m/s)
Visibility: 6 or more miles (10+ km)
Clouds: few clouds at 6000 feet AGL
Weather: no significant weather forecast for this period
Forecast for: LEZG (ZARAGOZA (MIL/CI, ES)
Text: TAF LEZG 242300Z 2500/2524 VRB03KT 9999 FEW060 TX27/2514Z TN11/2506Z
Forecast period: 0000 to 0700 UTC 25 April 2018
Forecast type: FROM: standard forecast or significant change
Winds: variable direction winds at 3 MPH (3 knots; 1.6 m/s)
Visibility: 6 or more miles (10+ km)
Clouds: few clouds at 6000 feet AGL
Weather: no significant weather forecast for this period
Forecast for: LEZG (ZARAGOZA (MIL/CI, ES)
Text: TAF LEZG 242300Z 2500/2524 VRB03KT 9999 FEW060 TX27/2514Z TN11/2506Z
Forecast period: 0700 to 1700 UTC 25 April 2018
Forecast type: BECOMING: Conditions expected to become as follows by 0900 UTC 25 April 2018
Winds: from the NW (310 degrees) at 12 MPH (10 knots; 5.2 m/s)
Visibility: 6 or more miles (10+ km)
Clouds: few clouds at 6000 feet AGL
Weather: no significant weather forecast for this period
Forecast for: LEZG (ZARAGOZA (MIL/CI, ES)
Text: TAF LEZG 242300Z 2500/2524 VRB03KT 9999 FEW060 TX27/2514Z TN11/2506Z
Forecast period: 0700 to 1700 UTC 25 April 2018
Forecast type: BECOMING: Conditions expected to become as follows by 0900 UTC 25 April 2018
Winds: from the NW (310 degrees) at 12 MPH (10 knots; 5.2 m/s)
Visibility: 6 or more miles (10+ km)
Clouds: few clouds at 6000 feet AGL
Weather: no significant weather forecast for this period
Forecast for: LEZG (ZARAGOZA (MIL/CI, ES)
Text: TAF LEZG 242300Z 2500/2524 VRB03KT 9999 FEW060 TX27/2514Z TN11/2506Z
Forecast period: 1700 UTC 25 April 2018 to 0000 UTC 26 April 2018
Forecast type: BECOMING: Conditions expected to become as follows by 1900 UTC 25 April 2018
Winds: from the NW (310 degrees) at 23 MPH (20 knots; 10.4 m/s)
Visibility: 6 or more miles (10+ km)
Clouds: few clouds at 6000 feet AGL
Weather: no significant weather forecast for this period
Forecast for: LEZG (ZARAGOZA (MIL/CI, ES)
Text: TAF LEZG 242300Z 2500/2524 VRB03KT 9999 FEW060 TX27/2514Z TN11/2506Z
Forecast period: 1700 UTC 25 April 2018 to 0000 UTC 26 April 2018
Forecast type: BECOMING: Conditions expected to become as follows by 1900 UTC 25 April 2018
Winds: from the NW (310 degrees) at 23 MPH (20 knots; 10.4 m/s)
Visibility: 6 or more miles (10+ km)
Clouds: few clouds at 6000 feet AGL
Weather: no significant weather forecast for this period

 MAPA DE AEROPUERTO

 INFORMACIÓN DE PISTA
Pista 12L Longitud 9843 ft Ancho 148 ft
Elevación 823 ft Umbral desplazado 0 ft Rumbo de pista 120
Pista 30R Longitud 9843 ft Ancho 148 ft
Elevación 834 ft Umbral desplazado 0 ft Rumbo de pista 300
Pista 12R Longitud 12198 ft Ancho 148 ft
Elevación 834 ft Umbral desplazado 0 ft Rumbo de pista 120
Pista 30L Longitud 12198 ft Ancho 148 ft
Elevación 863 ft Umbral desplazado 0 ft Rumbo de pista 300

 FRECUANCIAS DEL AEROPUERTO
Tipo APP Nombre APP Frecuencia 119.3 MHZ
Tipo GND Nombre GND Frecuencia 118.1 MHZ
Tipo TWR Nombre TWR Frecuencia 118.1 MHZ

 RADIO AYUDAS DEL AEROPUERTO
Tipo VOR-DME Nombre Zaragoza Frecuencia 113000 KHZ
Tipo NDB Nombre Zaragoza Frecuencia 389 KHZ
Tipo TACAN Nombre Zaragoza Frecuencia 133700 KHZ
Tipo NDB Nombre Zaragoza Frecuencia 348 KHZ